createdAt,value
2017-10-02T00:00:10.547Z,3.40
2017-10-02T00:02:37.811Z,4.97
2017-10-02T00:05:05.680Z,3.42
2017-10-02T00:07:36.312Z,3.47
2017-10-02T00:10:03.510Z,2.70
2017-10-02T00:12:31.905Z,3.20
2017-10-02T00:17:29.699Z,3.80
2017-10-02T00:19:56.726Z,6.55
2017-10-02T00:22:23.463Z,3.15
2017-10-02T00:24:50.675Z,4.97
2017-10-02T00:27:18.378Z,4.00
2017-10-02T00:29:47.651Z,2.95
2017-10-02T00:32:14.382Z,5.43
2017-10-02T00:34:41.371Z,2.47
2017-10-02T00:37:08.123Z,3.58
2017-10-02T00:39:35.888Z,3.53
2017-10-02T00:42:02.610Z,3.42
2017-10-02T00:44:29.601Z,3.15
2017-10-02T00:46:58.150Z,4.85
2017-10-02T00:49:24.994Z,3.60
2017-10-02T00:51:56.387Z,3.67
2017-10-02T00:54:25.779Z,3.90
2017-10-02T00:56:52.513Z,2.03
2017-10-02T00:59:22.693Z,3.05
2017-10-02T01:01:50.991Z,2.85
2017-10-02T01:04:30.917Z,4.90
2017-10-02T01:07:00.724Z,3.12
2017-10-02T01:12:10.776Z,3.12
2017-10-02T01:14:39.684Z,2.85
2017-10-02T01:17:08.414Z,2.62
2017-10-02T01:19:35.398Z,3.75
2017-10-02T01:22:09.216Z,4.22
2017-10-02T01:24:37.648Z,6.93
2017-10-02T01:32:14.911Z,2.65
2017-10-02T01:37:14.939Z,2.60
2017-10-02T01:47:20.414Z,3.00
2017-10-02T01:49:50.686Z,3.10
2017-10-02T01:52:19.527Z,3.00
2017-10-02T01:57:37.107Z,3.72
2017-10-02T02:02:47.499Z,4.90
2017-10-02T02:05:17.895Z,2.35
2017-10-02T02:07:47.480Z,2.78
2017-10-02T02:12:53.407Z,3.83
2017-10-02T02:15:22.123Z,2.37
2017-10-02T02:17:52.246Z,2.33
2017-10-02T02:23:01.331Z,3.50
2017-10-02T02:25:31.674Z,2.37
2017-10-02T02:28:02.870Z,3.00
2017-10-02T02:30:31.389Z,2.28
2017-10-02T02:32:59.144Z,2.40
2017-10-02T02:35:26.219Z,4.97
2017-10-02T02:37:52.982Z,3.15
2017-10-02T02:40:23.487Z,4.65
2017-10-02T02:42:51.548Z,1.90
2017-10-02T02:45:20.042Z,3.80
2017-10-02T02:47:52.558Z,1.70
2017-10-02T02:50:20.665Z,4.87
2017-10-02T02:52:47.474Z,2.25
2017-10-02T02:55:17.339Z,4.28
2017-10-02T02:57:45.222Z,2.25
2017-10-02T03:00:11.955Z,4.07
2017-10-02T03:02:41.850Z,2.00
2017-10-02T03:05:11.714Z,3.15
2017-10-02T03:13:03.231Z,3.22
2017-10-02T03:23:18.648Z,6.00
2017-10-02T03:25:52.001Z,3.30
2017-10-02T03:33:35.353Z,2.53
2017-10-02T03:38:50.075Z,2.22
2017-10-02T03:41:18.876Z,4.90
2017-10-02T03:43:50.759Z,3.17
2017-10-02T03:48:53.682Z,3.90
2017-10-02T03:53:57.707Z,1.75
2017-10-02T03:58:58.005Z,2.40
2017-10-02T04:01:33.593Z,4.07
2017-10-02T04:06:36.765Z,6.18
2017-10-02T04:09:04.378Z,2.40
2017-10-02T04:14:05.602Z,4.68
2017-10-02T04:16:32.329Z,3.20
2017-10-02T04:21:36.379Z,2.10
2017-10-02T04:26:50.438Z,2.80
2017-10-02T04:29:17.174Z,2.80
2017-10-02T04:34:19.547Z,3.25
2017-10-02T04:36:50.914Z,5.43
2017-10-02T04:44:27.413Z,2.83
2017-10-02T04:49:52.434Z,2.65
2017-10-02T04:55:25.539Z,2.72
2017-10-02T04:57:57.751Z,3.90
2017-10-02T05:00:35.682Z,2.95
2017-10-02T05:06:09.500Z,3.85
2017-10-02T05:46:50.934Z,4.50
2017-10-02T06:56:17.870Z,6.50
2017-10-02T06:58:44.610Z,3.45
2017-10-02T07:01:12.250Z,4.28
2017-10-02T07:03:40.596Z,5.35
2017-10-02T07:06:07.562Z,4.22
2017-10-02T07:11:40.986Z,4.25
2017-10-02T07:22:35.717Z,3.78
2017-10-02T07:33:49.665Z,4.93
2017-10-02T07:42:10.842Z,4.15
2017-10-02T07:44:39.170Z,3.92
2017-10-02T07:47:23.510Z,4.32
2017-10-02T07:49:50.250Z,5.18
2017-10-02T08:00:46.062Z,5.32
2017-10-02T08:20:46.417Z,5.50
2017-10-02T08:51:56.567Z,6.37
2017-10-02T09:26:39.295Z,8.85
2017-10-02T09:46:38.099Z,7.20
2017-10-02T09:52:07.963Z,7.80
2017-10-02T09:54:41.474Z,7.25
2017-10-02T10:17:27.189Z,6.68
2017-10-02T10:19:58.186Z,6.05
2017-10-02T10:22:28.015Z,6.20
2017-10-02T10:30:35.437Z,5.55
2017-10-02T10:44:32.966Z,5.80
2017-10-02T10:52:28.322Z,5.25
2017-10-02T10:58:02.413Z,6.18
2017-10-02T11:00:38.907Z,6.55
2017-10-02T11:05:45.355Z,6.30
2017-10-02T11:08:21.214Z,5.62
2017-10-02T11:10:51.886Z,5.82
2017-10-02T11:18:33.627Z,7.68
2017-10-02T11:23:36.157Z,5.87
2017-10-02T11:26:02.942Z,10.00
2017-10-02T11:28:34.817Z,7.12
2017-10-02T11:31:02.467Z,7.90
2017-10-02T11:33:30.415Z,11.98
2017-10-02T11:35:58.768Z,7.40
2017-10-02T11:41:02.739Z,7.25
2017-10-02T11:43:35.926Z,7.37
2017-10-02T11:46:03.831Z,7.50
2017-10-02T11:48:30.591Z,5.57
2017-10-02T11:50:59.129Z,11.32
2017-10-02T11:53:29.718Z,7.45
2017-10-02T11:55:56.447Z,9.20
2017-10-02T11:58:23.193Z,14.52
2017-10-02T12:00:49.969Z,7.25
2017-10-02T12:03:16.710Z,6.65
2017-10-02T12:05:45.064Z,11.27
2017-10-02T12:08:15.406Z,11.18
2017-10-02T12:10:42.160Z,9.35
2017-10-02T12:13:08.913Z,9.32
2017-10-02T12:15:36.494Z,8.02
2017-10-02T12:18:03.240Z,12.05
2017-10-02T12:20:29.961Z,10.15
2017-10-02T12:22:56.933Z,7.30
2017-10-02T12:25:23.726Z,7.00
2017-10-02T12:27:50.468Z,12.23
2017-10-02T12:30:17.202Z,10.10
2017-10-02T12:32:43.935Z,6.15
2017-10-02T12:35:10.660Z,10.23
2017-10-02T12:37:38.285Z,7.87
2017-10-02T12:40:05.043Z,7.43
2017-10-02T12:42:32.095Z,9.32
2017-10-02T12:44:58.847Z,7.15
2017-10-02T12:47:25.888Z,10.68
2017-10-02T12:49:52.632Z,10.65
2017-10-02T12:52:19.354Z,9.18
2017-10-02T12:54:46.084Z,8.68
2017-10-02T12:57:12.828Z,9.98
2017-10-02T12:59:39.818Z,10.90
2017-10-02T13:02:06.535Z,9.20
2017-10-02T13:04:33.742Z,8.35
2017-10-02T13:07:00.467Z,9.50
2017-10-02T13:09:29.197Z,11.52
2017-10-02T13:11:55.985Z,8.30
2017-10-02T13:14:24.442Z,9.82
2017-10-02T13:16:51.150Z,10.60
2017-10-02T13:21:48.954Z,12.63
2017-10-02T13:24:15.763Z,13.00
2017-10-02T13:26:42.522Z,15.60
2017-10-02T13:29:09.299Z,10.95
2017-10-02T13:31:36.010Z,8.93
2017-10-02T13:34:02.746Z,11.18
2017-10-02T13:36:33.075Z,10.52
2017-10-02T13:39:00.075Z,11.65
2017-10-02T13:41:26.810Z,11.18
2017-10-02T13:43:53.532Z,11.95
2017-10-02T13:46:20.578Z,8.45
2017-10-02T13:48:51.984Z,13.35
2017-10-02T13:51:18.731Z,15.57
2017-10-02T13:53:45.473Z,12.80
2017-10-02T13:56:15.907Z,14.38
2017-10-02T13:58:42.957Z,9.57
2017-10-02T14:01:12.362Z,13.05
2017-10-02T14:03:39.087Z,10.90
2017-10-02T14:06:05.835Z,12.52
2017-10-02T14:08:32.846Z,13.02
2017-10-02T14:10:59.610Z,15.70
2017-10-02T14:13:26.442Z,16.15
2017-10-02T14:15:55.594Z,9.40
2017-10-02T14:20:55.138Z,10.98
2017-10-02T14:23:21.938Z,13.70
2017-10-02T14:25:48.699Z,14.43
2017-10-02T14:28:16.379Z,13.52
2017-10-02T14:30:44.676Z,13.13
2017-10-02T14:33:11.449Z,17.50
2017-10-02T14:35:38.203Z,11.77
2017-10-02T14:38:04.930Z,18.12
2017-10-02T14:40:31.670Z,11.00
2017-10-02T14:42:58.759Z,15.90
2017-10-02T14:45:25.553Z,10.57
2017-10-02T14:47:52.296Z,15.18
2017-10-02T14:50:19.028Z,14.32
2017-10-02T14:52:46.698Z,14.20
2017-10-02T14:55:13.430Z,13.80
2017-10-02T14:57:40.163Z,12.20
2017-10-02T15:00:06.915Z,14.23
2017-10-02T15:02:33.648Z,16.87
2017-10-02T15:05:00.483Z,10.77
2017-10-02T15:07:27.195Z,13.98
2017-10-02T15:09:54.267Z,13.07
2017-10-02T15:12:20.994Z,13.62
2017-10-02T15:14:47.718Z,12.75
2017-10-02T15:17:14.425Z,12.77
2017-10-02T15:19:41.414Z,10.60
2017-10-02T15:22:08.202Z,10.70
2017-10-02T15:24:34.954Z,13.98
2017-10-02T15:27:01.723Z,11.52
2017-10-02T15:29:28.463Z,11.63
2017-10-02T15:31:55.202Z,14.90
2017-10-02T15:34:21.981Z,13.62
2017-10-02T15:36:48.747Z,12.65
2017-10-02T15:39:15.460Z,13.18
2017-10-02T15:41:42.176Z,14.48
2017-10-02T15:44:09.235Z,17.58
2017-10-02T15:46:35.961Z,15.63
2017-10-02T15:49:02.758Z,17.12
2017-10-02T15:51:29.542Z,14.23
2017-10-02T15:53:56.254Z,18.80
2017-10-02T15:56:22.983Z,14.77
2017-10-02T15:58:49.701Z,14.68
2017-10-02T16:01:16.435Z,12.25
2017-10-02T16:03:43.167Z,18.33
2017-10-02T16:06:09.898Z,15.90
2017-10-02T16:08:36.695Z,17.20
2017-10-02T16:11:03.443Z,19.17
2017-10-02T16:13:30.402Z,13.43
2017-10-02T16:15:57.207Z,15.68
2017-10-02T16:18:23.917Z,11.05
2017-10-02T16:20:50.683Z,18.27
2017-10-02T16:23:18.138Z,17.90
2017-10-02T16:25:44.870Z,15.43
2017-10-02T16:28:11.630Z,14.80
2017-10-02T16:30:38.466Z,19.17
2017-10-02T16:33:05.189Z,16.00
2017-10-02T16:35:32.582Z,16.80
2017-10-02T16:37:59.334Z,11.65
2017-10-02T16:40:26.063Z,22.25
2017-10-02T16:42:52.821Z,18.73
2017-10-02T16:46:01.838Z,12.15
2017-10-02T16:48:28.558Z,12.02
2017-10-02T16:50:55.294Z,12.68
2017-10-02T16:53:22.751Z,14.20
2017-10-02T16:55:49.513Z,13.70
2017-10-02T16:58:16.647Z,11.60
2017-10-02T17:00:44.307Z,11.52
2017-10-02T17:03:12.315Z,14.27
2017-10-02T17:05:39.638Z,19.60
2017-10-02T17:08:08.006Z,11.98
2017-10-02T17:10:35.151Z,13.40
2017-10-02T17:13:01.889Z,22.60
2017-10-02T17:15:31.239Z,13.75
2017-10-02T17:17:58.038Z,17.37
2017-10-02T17:20:25.750Z,12.75
2017-10-02T17:22:53.304Z,11.80
2017-10-02T17:25:20.516Z,16.23
2017-10-02T17:27:50.782Z,21.23
2017-10-02T17:30:19.139Z,16.10
2017-10-02T17:32:46.719Z,12.52
2017-10-02T17:35:14.610Z,18.90
2017-10-02T17:37:42.586Z,11.95
2017-10-02T17:40:10.850Z,16.30
2017-10-02T17:42:37.626Z,12.10
2017-10-02T17:50:10.274Z,12.48
2017-10-02T17:52:42.105Z,16.58
2017-10-02T17:57:41.522Z,9.93
2017-10-02T18:02:42.437Z,15.73
2017-10-02T18:05:12.020Z,10.23
2017-10-02T18:10:12.343Z,11.85
2017-10-02T18:12:40.046Z,14.30
2017-10-02T18:15:09.634Z,11.82
2017-10-02T18:20:11.788Z,21.05
2017-10-02T18:22:44.642Z,12.90
2017-10-02T18:25:13.908Z,11.75
2017-10-02T18:27:47.458Z,14.77
2017-10-02T18:30:14.207Z,13.82
2017-10-02T18:32:41.211Z,20.17
2017-10-02T18:37:47.637Z,14.93
2017-10-02T18:40:17.099Z,14.73
2017-10-02T18:45:16.481Z,18.98
2017-10-02T18:47:45.555Z,13.30
2017-10-02T18:52:45.189Z,14.87
2017-10-02T18:57:44.288Z,15.10
2017-10-02T19:00:12.101Z,13.27
2017-10-02T19:05:15.320Z,16.37
2017-10-02T19:10:19.148Z,17.08
2017-10-02T19:12:47.598Z,16.95
2017-10-02T19:15:16.757Z,14.82
2017-10-02T19:17:43.722Z,21.60
2017-10-02T19:20:11.318Z,15.65
2017-10-02T19:25:14.610Z,16.90
2017-10-02T19:27:41.782Z,12.45
2017-10-02T19:30:09.361Z,13.27
2017-10-02T19:32:37.662Z,13.27
2017-10-02T19:35:04.722Z,15.10
2017-10-02T19:37:32.604Z,8.80
2017-10-02T19:42:36.211Z,20.33
2017-10-02T19:45:03.431Z,17.62
2017-10-02T19:47:33.666Z,16.00
2017-10-02T19:50:03.383Z,15.45
2017-10-02T19:52:35.521Z,16.77
2017-10-02T19:55:02.574Z,14.27
2017-10-02T19:57:29.954Z,12.57
2017-10-02T19:59:58.454Z,14.02
2017-10-02T20:02:26.798Z,14.23
2017-10-02T20:07:47.439Z,15.25
2017-10-02T20:10:14.194Z,12.32
2017-10-02T20:15:16.910Z,20.27
2017-10-02T20:20:18.121Z,15.13
2017-10-02T20:22:50.095Z,14.82
2017-10-02T20:30:27.322Z,14.38
2017-10-02T20:32:55.724Z,20.77
2017-10-02T20:35:28.646Z,16.42
2017-10-02T20:37:58.668Z,11.35
2017-10-02T20:40:25.410Z,14.27
2017-10-02T20:43:03.110Z,12.95
2017-10-02T20:45:31.012Z,18.77
2017-10-02T20:53:07.148Z,17.40
2017-10-02T20:55:36.851Z,21.62
2017-10-02T20:58:05.278Z,18.25
2017-10-02T21:00:32.053Z,14.27
2017-10-02T21:05:35.478Z,15.38
2017-10-02T21:08:02.202Z,16.15
2017-10-02T21:10:28.930Z,17.02
2017-10-02T21:12:55.651Z,17.83
2017-10-02T21:15:22.753Z,15.27
2017-10-02T21:17:49.477Z,18.58
2017-10-02T21:20:16.294Z,12.05
2017-10-02T21:25:16.416Z,13.43
2017-10-02T21:27:43.813Z,17.95
2017-10-02T21:30:10.547Z,19.30
2017-10-02T21:35:08.283Z,21.27
2017-10-02T21:37:35.014Z,16.02
2017-10-02T21:40:01.750Z,19.45
2017-10-02T21:42:31.139Z,13.43
2017-10-02T21:44:58.117Z,9.88
2017-10-02T21:47:28.463Z,12.30
2017-10-02T21:49:55.453Z,23.33
2017-10-02T21:52:23.795Z,17.62
2017-10-02T21:54:52.728Z,18.62
2017-10-02T21:57:20.496Z,13.48
2017-10-02T22:02:21.964Z,12.88
2017-10-02T22:07:27.343Z,16.00
2017-10-02T22:09:55.958Z,16.25
2017-10-02T22:30:35.223Z,21.25
2017-10-02T22:58:23.587Z,24.95
2017-10-02T23:03:32.619Z,20.83
